Keewaydin — ZCFL7 — position and weather

sailwx.info

Track history (hours):
 
Tides and Currents Weather Stations Pressure Air Temp Water Temp Dewpoint Dewpoint Depression Visibility Wind Speed Wind Dir Waves Ship Positions

Keewaydin

Last reported at 2014-Aug-26 14:16 UTC. Time now 2014-Sep-01 20:59 UTC.
Position N 41°22' E 002°15'.

Length 34 m; draft 2.7 m.

Type: Sailing vessel. MMSI: 319536000.

Date/timePositionNaut miles runAvg speedWind from/ knotsBaromVisibWave heightAir tempDewpointWater temp
2014-Aug-26 14:16N 41°22' E 002°15'7 8.3
2014-Aug-26 13:28N 41°16' E 002°11'16 1.0
2014-Aug-25 20:33N 41°14' E 001°50'0 0.0
2014-Aug-25 19:33N 41°14' E 001°50'0 0.0
2014-Aug-25 18:33N 41°14' E 001°50'0 0.0
2014-Aug-25 17:33N 41°14' E 001°50'8 8.1
2014-Aug-25 16:33N 41°06' E 001°54'9 8.7
2014-Aug-25 15:32N 40°58' E 001°59'9 8.9
2014-Aug-25 14:33N 40°51' E 002°04'9 8.8
2014-Aug-25 13:33N 40°43' E 002°08'8 8.4
2014-Aug-25 12:33N 40°35' E 002°13'8 8.4
2014-Aug-25 11:33N 40°27' E 002°18'9 8.5
2014-Aug-25 10:33N 40°20' E 002°22'8 8.4
2014-Aug-25 09:33N 40°12' E 002°27'8 8.0
2014-Aug-25 08:33N 40°05' E 002°32'8 7.9
2014-Aug-25 07:33N 39°58' E 002°36'8 7.7
2014-Aug-25 06:33N 39°51' E 002°40'3 3.2
2014-Aug-25 05:33N 39°48' E 002°41'  
2014-Aug-19 19:21N 39°34' E 002°21'5 6.0
2014-Aug-19 18:33N 39°37' E 002°16'9 8.8
2014-Aug-19 17:33N 39°45' E 002°12'9 9.2
2014-Aug-19 16:33N 39°54' E 002°08'9 9.2
2014-Aug-19 15:33N 40°03' E 002°05'9 8.9
2014-Aug-19 14:33N 40°11' E 002°02'9 9.1
2014-Aug-19 13:33N 40°20' E 001°59'9 9.1
2014-Aug-19 12:33N 40°29' E 001°56'9 9.1
2014-Aug-19 11:33N 40°38' E 001°54'9 9.1
2014-Aug-19 10:33N 40°47' E 001°51'1010.2
2014-Aug-19 09:33N 40°57' E 001°49'10 9.7
2014-Aug-19 08:33N 41°07' E 001°46'  
Track history (hours):
 
Tides and Currents Weather Stations Pressure Air Temp Water Temp Dewpoint Dewpoint Depression Visibility Wind Speed Wind Dir Waves Ship Positions

Keewaydin

Last reported at 2014-Aug-26 14:16 UTC. Time now 2014-Sep-01 20:59 UTC.
Position N 41°22' E 002°15'.

Length 34 m; draft 2.7 m.

Type: Sailing vessel. MMSI: 319536000.

Date/timePositionNaut miles runAvg speedWind from/ knotsBaromVisibWave heightAir tempDewpointWater temp
2014-Aug-26 14:16N 41°22' E 002°15'7 8.3
2014-Aug-26 13:28N 41°16' E 002°11'16 1.0
2014-Aug-25 20:33N 41°14' E 001°50'0 0.0
2014-Aug-25 19:33N 41°14' E 001°50'0 0.0
2014-Aug-25 18:33N 41°14' E 001°50'0 0.0
2014-Aug-25 17:33N 41°14' E 001°50'8 8.1
2014-Aug-25 16:33N 41°06' E 001°54'9 8.7
2014-Aug-25 15:32N 40°58' E 001°59'9 8.9
2014-Aug-25 14:33N 40°51' E 002°04'9 8.8
2014-Aug-25 13:33N 40°43' E 002°08'8 8.4
2014-Aug-25 12:33N 40°35' E 002°13'8 8.4
2014-Aug-25 11:33N 40°27' E 002°18'9 8.5
2014-Aug-25 10:33N 40°20' E 002°22'8 8.4
2014-Aug-25 09:33N 40°12' E 002°27'8 8.0
2014-Aug-25 08:33N 40°05' E 002°32'8 7.9
2014-Aug-25 07:33N 39°58' E 002°36'8 7.7
2014-Aug-25 06:33N 39°51' E 002°40'3 3.2
2014-Aug-25 05:33N 39°48' E 002°41'  
2014-Aug-19 19:21N 39°34' E 002°21'5 6.0
2014-Aug-19 18:33N 39°37' E 002°16'9 8.8
2014-Aug-19 17:33N 39°45' E 002°12'9 9.2
2014-Aug-19 16:33N 39°54' E 002°08'9 9.2
2014-Aug-19 15:33N 40°03' E 002°05'9 8.9
2014-Aug-19 14:33N 40°11' E 002°02'9 9.1
2014-Aug-19 13:33N 40°20' E 001°59'9 9.1
2014-Aug-19 12:33N 40°29' E 001°56'9 9.1
2014-Aug-19 11:33N 40°38' E 001°54'9 9.1
2014-Aug-19 10:33N 40°47' E 001°51'1010.2
2014-Aug-19 09:33N 40°57' E 001°49'10 9.7
2014-Aug-19 08:33N 41°07' E 001°46'  

Dump ship's entire track history